createdAt,value
2023-06-30T00:03:05.226Z,13.46
2023-06-30T00:09:06.639Z,13.34
2023-06-30T00:15:07.853Z,13.25
2023-06-30T00:21:09.126Z,13.18
2023-06-30T00:27:10.312Z,13.09
2023-06-30T00:33:11.500Z,13.11
2023-06-30T00:39:12.713Z,13.09
2023-06-30T00:45:14.021Z,12.98
2023-06-30T00:51:15.447Z,12.88
2023-06-30T00:57:16.820Z,12.81
2023-06-30T01:03:18.146Z,12.72
2023-06-30T01:09:19.505Z,12.63
2023-06-30T01:15:20.882Z,12.50
2023-06-30T01:21:22.588Z,12.51
2023-06-30T01:27:23.829Z,12.39
2023-06-30T01:33:27.286Z,12.17
2023-06-30T01:39:28.544Z,11.98
2023-06-30T01:45:29.782Z,11.75
2023-06-30T01:51:31.102Z,11.49
2023-06-30T01:57:32.341Z,11.30
2023-06-30T02:03:33.658Z,11.17
2023-06-30T02:09:47.302Z,11.01
2023-06-30T02:15:49.604Z,10.91
2023-06-30T02:21:50.834Z,10.81
2023-06-30T02:27:53.560Z,10.77
2023-06-30T02:33:55.297Z,10.77
2023-06-30T02:39:56.491Z,10.76
2023-06-30T02:45:57.790Z,10.74
2023-06-30T02:51:59.058Z,10.75
2023-06-30T02:58:00.295Z,10.75
2023-06-30T03:04:01.695Z,10.71
2023-06-30T03:10:02.937Z,10.65
2023-06-30T03:16:04.121Z,10.59
2023-06-30T03:22:05.345Z,10.60
2023-06-30T03:28:06.586Z,10.62
2023-06-30T03:34:07.808Z,10.63
2023-06-30T03:40:09.180Z,10.62
2023-06-30T03:46:12.730Z,10.60
2023-06-30T03:52:13.962Z,10.59
2023-06-30T03:58:15.265Z,10.63
2023-06-30T04:04:16.689Z,10.63
2023-06-30T04:10:17.982Z,10.67
2023-06-30T04:16:19.251Z,10.66
2023-06-30T04:22:20.489Z,10.68
2023-06-30T04:28:21.688Z,10.70
2023-06-30T04:34:22.917Z,10.78
2023-06-30T04:40:24.149Z,10.84
2023-06-30T04:46:26.360Z,10.85
2023-06-30T04:52:27.919Z,10.90
2023-06-30T04:58:29.301Z,10.88
2023-06-30T05:04:30.550Z,10.91
2023-06-30T05:10:31.776Z,10.90
2023-06-30T05:16:34.656Z,11.03
2023-06-30T05:22:36.470Z,11.21
2023-06-30T05:28:37.694Z,11.39
2023-06-30T05:34:38.925Z,11.47
2023-06-30T05:40:40.135Z,11.51
2023-06-30T05:46:41.427Z,11.53
2023-06-30T05:52:42.743Z,11.38
2023-06-30T05:58:43.996Z,11.30
2023-06-30T06:04:45.411Z,11.32
2023-06-30T06:10:47.627Z,11.52
2023-06-30T06:16:48.955Z,11.69
2023-06-30T06:22:50.216Z,11.75
2023-06-30T06:28:51.427Z,11.85
2023-06-30T06:34:52.619Z,11.95
2023-06-30T06:40:53.875Z,12.00
2023-06-30T06:46:55.069Z,11.88
2023-06-30T06:52:56.259Z,11.92
2023-06-30T06:58:57.456Z,12.10
2023-06-30T07:04:59.090Z,12.54
2023-06-30T07:11:00.510Z,13.13
2023-06-30T07:17:01.697Z,13.17
2023-06-30T07:23:02.926Z,13.47
2023-06-30T07:29:04.115Z,13.11
2023-06-30T07:35:05.330Z,12.76
2023-06-30T07:41:06.624Z,13.08
2023-06-30T07:47:07.857Z,13.03
2023-06-30T07:53:09.728Z,13.35
2023-06-30T07:59:11.983Z,13.46
2023-06-30T08:05:13.616Z,13.38
2023-06-30T08:11:15.010Z,13.13
2023-06-30T08:17:31.334Z,13.15
2023-06-30T08:23:37.807Z,13.50
2023-06-30T08:29:39.065Z,13.97
2023-06-30T08:35:40.313Z,14.21
2023-06-30T08:41:43.806Z,14.24
2023-06-30T08:47:45.067Z,14.36
2023-06-30T08:53:46.277Z,14.38
2023-06-30T08:59:47.534Z,14.86
2023-06-30T09:05:48.871Z,15.22
2023-06-30T09:11:50.887Z,15.15
2023-06-30T09:17:52.107Z,15.63
2023-06-30T09:23:53.380Z,15.14
2023-06-30T09:29:55.066Z,15.32
2023-06-30T09:35:57.525Z,15.43
2023-06-30T09:41:58.750Z,15.61
2023-06-30T09:48:00.036Z,15.89
2023-06-30T09:54:02.072Z,16.25
2023-06-30T10:00:03.292Z,16.35
2023-06-30T10:06:04.506Z,17.05
2023-06-30T10:12:05.776Z,17.47
2023-06-30T10:18:07.057Z,16.98
2023-06-30T10:24:08.276Z,17.40
2023-06-30T10:30:09.485Z,18.48
2023-06-30T10:36:10.692Z,18.62
2023-06-30T10:42:11.905Z,18.21
2023-06-30T10:48:13.132Z,18.04
2023-06-30T10:54:14.346Z,18.94
2023-06-30T11:00:15.826Z,18.89
2023-06-30T11:06:17.086Z,18.35
2023-06-30T11:12:19.480Z,19.47
2023-06-30T11:18:20.950Z,20.27
2023-06-30T11:24:22.311Z,21.29
2023-06-30T11:30:23.744Z,21.43
2023-06-30T11:36:24.969Z,20.44
2023-06-30T11:42:26.191Z,20.74
2023-06-30T11:48:27.597Z,20.81
2023-06-30T11:54:28.842Z,21.14
2023-06-30T12:00:30.122Z,21.30
2023-06-30T12:06:31.515Z,20.84
2023-06-30T12:12:33.127Z,19.77
2023-06-30T12:18:37.410Z,19.07
2023-06-30T12:24:40.764Z,18.89
2023-06-30T12:30:41.953Z,19.46
2023-06-30T12:36:43.194Z,20.91
2023-06-30T12:42:44.399Z,20.83
2023-06-30T12:48:46.353Z,21.75
2023-06-30T12:54:47.634Z,23.22
2023-06-30T13:00:48.921Z,22.55
2023-06-30T13:06:50.188Z,22.46
2023-06-30T13:12:51.397Z,24.34
2023-06-30T13:18:52.611Z,22.85
2023-06-30T13:24:53.838Z,23.39
2023-06-30T13:30:55.093Z,22.42
2023-06-30T13:36:56.303Z,20.79
2023-06-30T13:42:57.509Z,19.78
2023-06-30T13:48:58.788Z,19.72
2023-06-30T13:55:00.011Z,21.58
2023-06-30T14:01:01.236Z,24.06
2023-06-30T14:07:05.362Z,24.98
2023-06-30T14:13:06.672Z,24.77
2023-06-30T14:19:08.224Z,25.39
2023-06-30T14:25:09.460Z,25.11
2023-06-30T14:31:10.704Z,22.83
2023-06-30T14:37:12.330Z,22.96
2023-06-30T14:43:13.627Z,22.38
2023-06-30T14:49:14.923Z,22.43
2023-06-30T14:55:16.250Z,23.26
2023-06-30T15:01:17.450Z,23.16
2023-06-30T15:07:19.679Z,23.99
2023-06-30T15:13:20.920Z,24.31
2023-06-30T15:19:22.181Z,24.41
2023-06-30T15:25:24.014Z,24.47
2023-06-30T15:31:25.257Z,24.17
2023-06-30T15:37:26.772Z,24.20
2023-06-30T15:43:28.239Z,23.93
2023-06-30T15:49:29.530Z,23.13
2023-06-30T15:55:30.772Z,22.34
2023-06-30T16:01:32.132Z,22.54
2023-06-30T16:07:33.472Z,22.96
2023-06-30T16:13:34.684Z,23.33
2023-06-30T16:19:35.912Z,24.15
2023-06-30T16:25:37.114Z,23.78
2023-06-30T16:31:38.315Z,23.50
2023-06-30T16:37:39.526Z,23.26
2023-06-30T16:43:40.817Z,23.01
2023-06-30T16:49:42.512Z,23.11
2023-06-30T16:55:43.897Z,23.43
2023-06-30T17:01:45.194Z,23.38
2023-06-30T17:07:46.447Z,23.41
2023-06-30T17:13:47.652Z,22.96
2023-06-30T17:19:48.910Z,22.91
2023-06-30T17:25:50.112Z,22.23
2023-06-30T17:31:51.597Z,21.61
2023-06-30T17:37:52.840Z,20.89
2023-06-30T17:43:54.062Z,20.25
2023-06-30T17:49:55.326Z,19.42
2023-06-30T17:55:56.601Z,18.73
2023-06-30T18:01:57.869Z,18.39
2023-06-30T18:07:59.116Z,18.21
2023-06-30T18:14:00.536Z,17.94
2023-06-30T18:20:01.739Z,17.84
2023-06-30T18:26:02.972Z,17.90
2023-06-30T18:32:04.196Z,18.16
2023-06-30T18:38:05.416Z,18.19
2023-06-30T18:44:06.822Z,17.97
2023-06-30T18:50:08.073Z,17.66
2023-06-30T18:56:09.292Z,17.32
2023-06-30T19:02:10.536Z,16.97
2023-06-30T19:08:11.799Z,16.65
2023-06-30T19:14:13.098Z,16.30
2023-06-30T19:20:14.302Z,16.02
2023-06-30T19:26:15.831Z,15.73
2023-06-30T19:32:17.065Z,15.42
2023-06-30T19:38:18.754Z,15.13
2023-06-30T19:44:20.340Z,14.91
2023-06-30T19:50:25.142Z,14.73
2023-06-30T19:56:26.381Z,14.58
2023-06-30T20:02:27.681Z,14.46
2023-06-30T20:08:28.956Z,14.33
2023-06-30T20:14:30.180Z,14.24
2023-06-30T20:20:31.380Z,14.16
2023-06-30T20:26:32.656Z,14.09
2023-06-30T20:32:33.932Z,14.00
2023-06-30T20:38:35.162Z,13.95
2023-06-30T20:44:36.434Z,13.90
2023-06-30T20:50:37.661Z,13.86
2023-06-30T20:56:38.936Z,13.81
2023-06-30T21:02:40.260Z,13.71
2023-06-30T21:08:41.549Z,13.52
2023-06-30T21:14:42.752Z,13.35
2023-06-30T21:20:44.383Z,13.21
2023-06-30T21:26:45.910Z,13.14
2023-06-30T21:32:47.238Z,13.11
2023-06-30T21:38:48.465Z,13.09
2023-06-30T21:44:49.895Z,13.03
2023-06-30T21:50:51.130Z,12.96
2023-06-30T21:56:52.340Z,12.87
2023-06-30T22:02:53.602Z,12.81
2023-06-30T22:09:00.327Z,12.71
2023-06-30T22:15:04.564Z,12.60
2023-06-30T22:21:05.981Z,12.57
2023-06-30T22:27:07.213Z,12.55
2023-06-30T22:33:08.738Z,12.53
2023-06-30T22:39:10.743Z,12.48
2023-06-30T22:45:12.054Z,12.42
2023-06-30T22:51:13.261Z,12.35
2023-06-30T22:57:14.572Z,12.31
2023-06-30T23:03:15.894Z,12.30
2023-06-30T23:09:17.140Z,12.32
2023-06-30T23:15:18.363Z,12.35
2023-06-30T23:21:19.575Z,12.41
2023-06-30T23:27:24.036Z,12.43
2023-06-30T23:33:26.101Z,12.49
2023-06-30T23:39:27.296Z,12.49
2023-06-30T23:45:28.538Z,12.53
2023-06-30T23:51:29.772Z,12.59
2023-06-30T23:57:31.028Z,12.62
